Aviation Digital Data Service (ADDS)

Output produced by METARs form (1011 UTC 29 July 2016)
found at http://aviationweather.gov/adds/metars/
 
KHLG 290700Z 2907/3006 00000KT 1/4SM FG VV002 
     FM290800 00000KT 1/2SM FG VV003 
     FM291400 28004KT P6SM BKN015 
     FM291600 31004KT P6SM BKN025 
     FM291800 32005KT P6SM VCSH BKN050